sensor_id;sensor_type;location;lat;lon;timestamp;P1;durP1;ratioP1;P2;durP2;ratioP2
37885;SDS011;23726;52.520;13.434;2022-10-31T00:02:07;30.52;;;22.40;;
37885;SDS011;23726;52.520;13.434;2022-10-31T00:04:33;28.58;;;21.17;;
37885;SDS011;23726;52.520;13.434;2022-10-31T00:06:58;34.22;;;21.17;;
37885;SDS011;23726;52.520;13.434;2022-10-31T00:09:24;31.73;;;21.55;;
37885;SDS011;23726;52.520;13.434;2022-10-31T00:11:49;28.30;;;21.00;;
37885;SDS011;23726;52.520;13.434;2022-10-31T00:14:15;33.03;;;21.48;;
37885;SDS011;23726;52.520;13.434;2022-10-31T00:16:40;30.67;;;20.90;;
37885;SDS011;23726;52.520;13.434;2022-10-31T00:19:06;26.73;;;20.95;;
37885;SDS011;23726;52.520;13.434;2022-10-31T00:21:33;29.98;;;21.85;;
37885;SDS011;23726;52.520;13.434;2022-10-31T00:23:59;28.90;;;21.40;;
37885;SDS011;23726;52.520;13.434;2022-10-31T00:26:26;28.90;;;21.27;;
37885;SDS011;23726;52.520;13.434;2022-10-31T00:28:52;28.38;;;20.92;;
37885;SDS011;23726;52.520;13.434;2022-10-31T00:31:18;27.77;;;21.52;;
37885;SDS011;23726;52.520;13.434;2022-10-31T00:33:44;31.00;;;21.90;;
37885;SDS011;23726;52.520;13.434;2022-10-31T00:36:13;27.27;;;20.33;;
37885;SDS011;23726;52.520;13.434;2022-10-31T00:38:41;26.60;;;20.90;;
37885;SDS011;23726;52.520;13.434;2022-10-31T00:41:06;31.08;;;21.38;;
37885;SDS011;23726;52.520;13.434;2022-10-31T00:43:32;30.17;;;21.40;;
37885;SDS011;23726;52.520;13.434;2022-10-31T00:45:58;30.33;;;21.13;;
37885;SDS011;23726;52.520;13.434;2022-10-31T00:48:24;26.83;;;21.58;;
37885;SDS011;23726;52.520;13.434;2022-10-31T00:50:49;26.67;;;20.55;;
37885;SDS011;23726;52.520;13.434;2022-10-31T00:53:15;27.95;;;22.42;;
37885;SDS011;23726;52.520;13.434;2022-10-31T00:55:40;26.90;;;20.45;;
37885;SDS011;23726;52.520;13.434;2022-10-31T00:58:06;29.30;;;21.40;;
37885;SDS011;23726;52.520;13.434;2022-10-31T01:00:32;29.15;;;20.38;;
37885;SDS011;23726;52.520;13.434;2022-10-31T01:02:57;27.25;;;20.33;;
37885;SDS011;23726;52.520;13.434;2022-10-31T01:05:23;26.30;;;20.10;;
37885;SDS011;23726;52.520;13.434;2022-10-31T01:07:48;28.20;;;21.15;;
37885;SDS011;23726;52.520;13.434;2022-10-31T01:10:14;27.58;;;21.17;;
37885;SDS011;23726;52.520;13.434;2022-10-31T01:12:41;31.50;;;22.25;;
37885;SDS011;23726;52.520;13.434;2022-10-31T01:15:08;26.73;;;20.65;;
37885;SDS011;23726;52.520;13.434;2022-10-31T01:17:35;29.27;;;21.83;;
37885;SDS011;23726;52.520;13.434;2022-10-31T01:20:01;24.70;;;20.00;;
37885;SDS011;23726;52.520;13.434;2022-10-31T01:22:27;25.67;;;20.23;;
37885;SDS011;23726;52.520;13.434;2022-10-31T01:24:53;28.77;;;21.05;;
37885;SDS011;23726;52.520;13.434;2022-10-31T01:27:18;26.92;;;20.45;;
37885;SDS011;23726;52.520;13.434;2022-10-31T01:29:44;24.45;;;20.73;;
37885;SDS011;23726;52.520;13.434;2022-10-31T01:32:09;25.83;;;20.20;;
37885;SDS011;23726;52.520;13.434;2022-10-31T01:34:35;27.48;;;19.90;;
37885;SDS011;23726;52.520;13.434;2022-10-31T01:37:00;24.20;;;19.92;;
37885;SDS011;23726;52.520;13.434;2022-10-31T01:39:26;24.23;;;19.77;;
37885;SDS011;23726;52.520;13.434;2022-10-31T01:41:52;23.92;;;19.50;;
37885;SDS011;23726;52.520;13.434;2022-10-31T01:49:41;26.95;;;20.20;;
37885;SDS011;23726;52.520;13.434;2022-10-31T01:52:24;26.30;;;19.85;;
37885;SDS011;23726;52.520;13.434;2022-10-31T01:54:58;30.08;;;20.33;;
37885;SDS011;23726;52.520;13.434;2022-10-31T01:57:30;28.63;;;19.65;;
37885;SDS011;23726;52.520;13.434;2022-10-31T01:59:59;24.92;;;19.45;;
37885;SDS011;23726;52.520;13.434;2022-10-31T02:02:28;27.10;;;19.17;;
37885;SDS011;23726;52.520;13.434;2022-10-31T02:04:56;26.52;;;20.30;;
37885;SDS011;23726;52.520;13.434;2022-10-31T02:07:25;24.30;;;19.02;;
37885;SDS011;23726;52.520;13.434;2022-10-31T02:12:21;25.63;;;18.77;;
37885;SDS011;23726;52.520;13.434;2022-10-31T02:14:47;24.98;;;18.83;;
37885;SDS011;23726;52.520;13.434;2022-10-31T02:17:13;23.63;;;18.63;;
37885;SDS011;23726;52.520;13.434;2022-10-31T02:27:57;27.17;;;18.23;;
37885;SDS011;23726;52.520;13.434;2022-10-31T02:30:50;24.05;;;18.05;;
37885;SDS011;23726;52.520;13.434;2022-10-31T02:35:50;24.10;;;17.42;;
37885;SDS011;23726;52.520;13.434;2022-10-31T02:43:47;25.55;;;18.27;;
37885;SDS011;23726;52.520;13.434;2022-10-31T02:46:34;22.52;;;17.50;;
37885;SDS011;23726;52.520;13.434;2022-10-31T02:49:31;22.00;;;17.02;;
37885;SDS011;23726;52.520;13.434;2022-10-31T02:52:10;24.08;;;17.23;;
37885;SDS011;23726;52.520;13.434;2022-10-31T02:54:52;21.63;;;17.58;;
37885;SDS011;23726;52.520;13.434;2022-10-31T02:57:31;21.55;;;17.15;;
37885;SDS011;23726;52.520;13.434;2022-10-31T03:00:04;23.70;;;17.83;;
37885;SDS011;23726;52.520;13.434;2022-10-31T03:05:07;23.80;;;18.02;;
37885;SDS011;23726;52.520;13.434;2022-10-31T03:10:21;23.05;;;17.58;;
37885;SDS011;23726;52.520;13.434;2022-10-31T03:13:14;21.83;;;17.88;;
37885;SDS011;23726;52.520;13.434;2022-10-31T03:18:33;20.60;;;16.30;;
37885;SDS011;23726;52.520;13.434;2022-10-31T03:23:46;19.80;;;16.10;;
37885;SDS011;23726;52.520;13.434;2022-10-31T03:26:16;21.98;;;16.30;;
37885;SDS011;23726;52.520;13.434;2022-10-31T03:28:50;21.95;;;17.00;;
37885;SDS011;23726;52.520;13.434;2022-10-31T03:31:19;23.25;;;17.52;;
37885;SDS011;23726;52.520;13.434;2022-10-31T03:33:48;26.40;;;17.00;;
37885;SDS011;23726;52.520;13.434;2022-10-31T03:36:16;25.15;;;17.17;;
37885;SDS011;23726;52.520;13.434;2022-10-31T03:38:42;22.40;;;16.42;;
37885;SDS011;23726;52.520;13.434;2022-10-31T03:41:13;21.67;;;16.30;;
37885;SDS011;23726;52.520;13.434;2022-10-31T03:43:46;20.55;;;16.67;;
37885;SDS011;23726;52.520;13.434;2022-10-31T03:46:17;21.35;;;16.67;;
37885;SDS011;23726;52.520;13.434;2022-10-31T03:48:43;19.75;;;16.60;;
37885;SDS011;23726;52.520;13.434;2022-10-31T03:51:15;20.75;;;16.23;;
37885;SDS011;23726;52.520;13.434;2022-10-31T03:54:02;20.13;;;15.95;;
37885;SDS011;23726;52.520;13.434;2022-10-31T03:56:47;19.30;;;15.55;;
37885;SDS011;23726;52.520;13.434;2022-10-31T03:59:29;21.65;;;16.55;;
37885;SDS011;23726;52.520;13.434;2022-10-31T04:02:01;18.83;;;15.05;;
37885;SDS011;23726;52.520;13.434;2022-10-31T04:04:29;19.33;;;15.47;;
37885;SDS011;23726;52.520;13.434;2022-10-31T04:06:55;22.50;;;15.60;;
37885;SDS011;23726;52.520;13.434;2022-10-31T04:09:25;19.48;;;15.52;;
37885;SDS011;23726;52.520;13.434;2022-10-31T04:11:53;19.75;;;15.20;;
37885;SDS011;23726;52.520;13.434;2022-10-31T04:14:22;19.73;;;14.63;;
37885;SDS011;23726;52.520;13.434;2022-10-31T04:16:50;18.35;;;15.05;;
37885;SDS011;23726;52.520;13.434;2022-10-31T04:19:16;18.33;;;14.48;;
37885;SDS011;23726;52.520;13.434;2022-10-31T04:21:42;17.35;;;14.73;;
37885;SDS011;23726;52.520;13.434;2022-10-31T04:24:08;19.05;;;15.10;;
37885;SDS011;23726;52.520;13.434;2022-10-31T04:26:35;19.63;;;14.77;;
37885;SDS011;23726;52.520;13.434;2022-10-31T04:29:01;19.70;;;15.50;;
37885;SDS011;23726;52.520;13.434;2022-10-31T04:31:26;20.83;;;15.25;;
37885;SDS011;23726;52.520;13.434;2022-10-31T04:33:52;19.58;;;14.27;;
37885;SDS011;23726;52.520;13.434;2022-10-31T04:36:17;18.80;;;14.15;;
37885;SDS011;23726;52.520;13.434;2022-10-31T04:38:43;17.40;;;14.50;;
37885;SDS011;23726;52.520;13.434;2022-10-31T04:41:08;17.27;;;14.50;;
37885;SDS011;23726;52.520;13.434;2022-10-31T04:43:35;20.15;;;14.93;;
37885;SDS011;23726;52.520;13.434;2022-10-31T04:46:01;19.60;;;14.80;;
37885;SDS011;23726;52.520;13.434;2022-10-31T04:48:28;18.85;;;14.30;;
37885;SDS011;23726;52.520;13.434;2022-10-31T04:50:57;18.88;;;14.70;;
37885;SDS011;23726;52.520;13.434;2022-10-31T04:53:26;19.60;;;13.73;;
37885;SDS011;23726;52.520;13.434;2022-10-31T04:55:52;17.52;;;13.80;;
37885;SDS011;23726;52.520;13.434;2022-10-31T04:58:19;17.88;;;13.82;;
37885;SDS011;23726;52.520;13.434;2022-10-31T05:00:44;17.48;;;13.85;;
37885;SDS011;23726;52.520;13.434;2022-10-31T05:03:10;19.48;;;14.70;;
37885;SDS011;23726;52.520;13.434;2022-10-31T05:05:35;18.10;;;13.40;;
37885;SDS011;23726;52.520;13.434;2022-10-31T05:08:02;17.65;;;13.35;;
37885;SDS011;23726;52.520;13.434;2022-10-31T05:10:29;15.25;;;13.00;;
37885;SDS011;23726;52.520;13.434;2022-10-31T05:12:56;23.30;;;13.93;;
37885;SDS011;23726;52.520;13.434;2022-10-31T05:15:23;16.55;;;12.60;;
37885;SDS011;23726;52.520;13.434;2022-10-31T05:17:50;16.30;;;13.15;;
37885;SDS011;23726;52.520;13.434;2022-10-31T05:20:19;15.45;;;13.05;;
37885;SDS011;23726;52.520;13.434;2022-10-31T05:22:48;15.80;;;12.43;;
37885;SDS011;23726;52.520;13.434;2022-10-31T05:25:15;16.63;;;12.63;;
37885;SDS011;23726;52.520;13.434;2022-10-31T05:27:41;15.85;;;12.80;;
37885;SDS011;23726;52.520;13.434;2022-10-31T05:30:09;15.73;;;13.07;;
37885;SDS011;23726;52.520;13.434;2022-10-31T05:32:39;16.02;;;13.00;;
37885;SDS011;23726;52.520;13.434;2022-10-31T05:35:05;14.30;;;12.48;;
37885;SDS011;23726;52.520;13.434;2022-10-31T05:37:33;14.85;;;12.25;;
37885;SDS011;23726;52.520;13.434;2022-10-31T05:40:03;15.85;;;12.45;;
37885;SDS011;23726;52.520;13.434;2022-10-31T05:42:29;15.27;;;12.55;;
37885;SDS011;23726;52.520;13.434;2022-10-31T05:44:55;15.30;;;12.13;;
37885;SDS011;23726;52.520;13.434;2022-10-31T05:47:22;15.55;;;12.00;;
37885;SDS011;23726;52.520;13.434;2022-10-31T05:49:47;14.35;;;11.80;;
37885;SDS011;23726;52.520;13.434;2022-10-31T05:52:13;16.83;;;11.50;;
37885;SDS011;23726;52.520;13.434;2022-10-31T05:54:38;16.48;;;12.70;;
37885;SDS011;23726;52.520;13.434;2022-10-31T05:57:05;16.33;;;11.82;;
37885;SDS011;23726;52.520;13.434;2022-10-31T05:59:32;16.60;;;11.70;;
37885;SDS011;23726;52.520;13.434;2022-10-31T06:01:57;14.27;;;12.20;;
37885;SDS011;23726;52.520;13.434;2022-10-31T06:04:23;15.60;;;11.38;;
37885;SDS011;23726;52.520;13.434;2022-10-31T06:06:49;14.57;;;11.18;;
37885;SDS011;23726;52.520;13.434;2022-10-31T06:09:14;17.27;;;11.25;;
37885;SDS011;23726;52.520;13.434;2022-10-31T06:11:40;14.55;;;11.77;;
37885;SDS011;23726;52.520;13.434;2022-10-31T06:14:05;15.25;;;11.57;;
37885;SDS011;23726;52.520;13.434;2022-10-31T06:16:32;14.13;;;11.93;;
37885;SDS011;23726;52.520;13.434;2022-10-31T06:18:58;13.88;;;10.57;;
37885;SDS011;23726;52.520;13.434;2022-10-31T06:21:24;14.60;;;11.40;;
37885;SDS011;23726;52.520;13.434;2022-10-31T06:23:49;17.00;;;11.85;;
37885;SDS011;23726;52.520;13.434;2022-10-31T06:26:15;15.38;;;11.75;;
37885;SDS011;23726;52.520;13.434;2022-10-31T06:28:41;13.93;;;11.23;;
37885;SDS011;23726;52.520;13.434;2022-10-31T06:31:06;13.20;;;11.10;;
37885;SDS011;23726;52.520;13.434;2022-10-31T06:33:32;14.32;;;11.05;;
37885;SDS011;23726;52.520;13.434;2022-10-31T06:35:58;16.58;;;11.80;;
37885;SDS011;23726;52.520;13.434;2022-10-31T06:38:25;12.90;;;10.73;;
37885;SDS011;23726;52.520;13.434;2022-10-31T06:40:52;13.93;;;10.50;;
37885;SDS011;23726;52.520;13.434;2022-10-31T06:43:18;13.18;;;11.70;;
37885;SDS011;23726;52.520;13.434;2022-10-31T06:45:44;14.88;;;11.25;;
37885;SDS011;23726;52.520;13.434;2022-10-31T06:48:09;15.45;;;11.88;;
37885;SDS011;23726;52.520;13.434;2022-10-31T06:50:36;13.50;;;10.30;;
37885;SDS011;23726;52.520;13.434;2022-10-31T06:53:01;14.25;;;10.93;;
37885;SDS011;23726;52.520;13.434;2022-10-31T06:55:27;15.13;;;10.90;;
37885;SDS011;23726;52.520;13.434;2022-10-31T06:57:54;12.05;;;10.45;;
37885;SDS011;23726;52.520;13.434;2022-10-31T07:00:21;13.73;;;11.60;;
37885;SDS011;23726;52.520;13.434;2022-10-31T07:02:56;17.73;;;10.90;;
37885;SDS011;23726;52.520;13.434;2022-10-31T07:05:25;13.68;;;10.57;;
37885;SDS011;23726;52.520;13.434;2022-10-31T07:07:59;13.40;;;10.60;;
37885;SDS011;23726;52.520;13.434;2022-10-31T07:10:28;13.57;;;10.27;;
37885;SDS011;23726;52.520;13.434;2022-10-31T07:12:57;13.18;;;10.90;;
37885;SDS011;23726;52.520;13.434;2022-10-31T07:15:27;14.57;;;11.45;;
37885;SDS011;23726;52.520;13.434;2022-10-31T07:18:04;15.70;;;10.70;;
37885;SDS011;23726;52.520;13.434;2022-10-31T07:20:31;14.05;;;10.55;;
37885;SDS011;23726;52.520;13.434;2022-10-31T07:22:57;12.50;;;10.68;;
37885;SDS011;23726;52.520;13.434;2022-10-31T07:25:23;15.00;;;10.40;;
37885;SDS011;23726;52.520;13.434;2022-10-31T07:27:49;12.50;;;9.98;;
37885;SDS011;23726;52.520;13.434;2022-10-31T07:30:15;12.82;;;10.10;;
37885;SDS011;23726;52.520;13.434;2022-10-31T07:32:45;13.45;;;10.10;;
37885;SDS011;23726;52.520;13.434;2022-10-31T07:35:13;14.10;;;10.48;;
37885;SDS011;23726;52.520;13.434;2022-10-31T07:37:42;12.00;;;10.50;;
37885;SDS011;23726;52.520;13.434;2022-10-31T07:40:08;12.50;;;10.38;;
37885;SDS011;23726;52.520;13.434;2022-10-31T07:42:44;13.73;;;10.65;;
37885;SDS011;23726;52.520;13.434;2022-10-31T07:45:13;12.93;;;10.40;;
37885;SDS011;23726;52.520;13.434;2022-10-31T07:47:46;12.35;;;10.02;;
37885;SDS011;23726;52.520;13.434;2022-10-31T07:50:14;12.80;;;9.82;;
37885;SDS011;23726;52.520;13.434;2022-10-31T07:52:41;15.20;;;10.93;;
37885;SDS011;23726;52.520;13.434;2022-10-31T07:55:07;13.77;;;10.77;;
37885;SDS011;23726;52.520;13.434;2022-10-31T07:57:33;17.85;;;9.73;;
37885;SDS011;23726;52.520;13.434;2022-10-31T07:59:59;11.82;;;9.88;;
37885;SDS011;23726;52.520;13.434;2022-10-31T08:02:25;14.95;;;10.85;;
37885;SDS011;23726;52.520;13.434;2022-10-31T08:04:51;15.05;;;10.40;;
37885;SDS011;23726;52.520;13.434;2022-10-31T08:07:18;13.10;;;10.25;;
37885;SDS011;23726;52.520;13.434;2022-10-31T08:09:44;10.90;;;9.52;;
37885;SDS011;23726;52.520;13.434;2022-10-31T08:12:09;11.65;;;10.13;;
37885;SDS011;23726;52.520;13.434;2022-10-31T08:14:34;11.85;;;10.30;;
37885;SDS011;23726;52.520;13.434;2022-10-31T08:17:00;11.05;;;9.38;;
37885;SDS011;23726;52.520;13.434;2022-10-31T08:19:25;10.55;;;9.25;;
37885;SDS011;23726;52.520;13.434;2022-10-31T08:21:51;14.70;;;10.63;;
37885;SDS011;23726;52.520;13.434;2022-10-31T08:24:17;14.30;;;10.45;;
37885;SDS011;23726;52.520;13.434;2022-10-31T08:26:43;12.05;;;9.88;;
37885;SDS011;23726;52.520;13.434;2022-10-31T08:29:09;10.82;;;9.63;;
37885;SDS011;23726;52.520;13.434;2022-10-31T08:31:35;14.00;;;10.55;;
37885;SDS011;23726;52.520;13.434;2022-10-31T08:34:01;12.25;;;9.40;;
37885;SDS011;23726;52.520;13.434;2022-10-31T08:36:27;11.60;;;9.57;;
37885;SDS011;23726;52.520;13.434;2022-10-31T08:38:53;12.73;;;9.60;;
37885;SDS011;23726;52.520;13.434;2022-10-31T08:41:20;11.95;;;9.95;;
37885;SDS011;23726;52.520;13.434;2022-10-31T08:43:45;12.77;;;9.68;;
37885;SDS011;23726;52.520;13.434;2022-10-31T08:46:12;10.98;;;9.13;;
37885;SDS011;23726;52.520;13.434;2022-10-31T08:48:38;10.75;;;9.45;;
37885;SDS011;23726;52.520;13.434;2022-10-31T08:51:04;13.57;;;9.70;;
37885;SDS011;23726;52.520;13.434;2022-10-31T08:53:29;13.50;;;9.73;;
37885;SDS011;23726;52.520;13.434;2022-10-31T08:55:55;12.57;;;9.93;;
37885;SDS011;23726;52.520;13.434;2022-10-31T08:58:23;11.50;;;10.07;;
37885;SDS011;23726;52.520;13.434;2022-10-31T09:00:50;13.63;;;9.55;;
37885;SDS011;23726;52.520;13.434;2022-10-31T09:03:19;11.88;;;9.70;;
37885;SDS011;23726;52.520;13.434;2022-10-31T09:05:49;14.30;;;9.52;;
37885;SDS011;23726;52.520;13.434;2022-10-31T09:08:19;12.95;;;9.45;;
37885;SDS011;23726;52.520;13.434;2022-10-31T09:10:44;13.52;;;9.63;;
37885;SDS011;23726;52.520;13.434;2022-10-31T09:13:11;15.38;;;9.77;;
37885;SDS011;23726;52.520;13.434;2022-10-31T09:15:39;12.95;;;9.57;;
37885;SDS011;23726;52.520;13.434;2022-10-31T09:18:06;15.57;;;9.38;;
37885;SDS011;23726;52.520;13.434;2022-10-31T09:20:33;12.23;;;9.10;;
37885;SDS011;23726;52.520;13.434;2022-10-31T09:23:22;15.68;;;9.77;;
37885;SDS011;23726;52.520;13.434;2022-10-31T09:25:47;13.07;;;9.27;;
37885;SDS011;23726;52.520;13.434;2022-10-31T09:28:14;12.27;;;9.65;;
37885;SDS011;23726;52.520;13.434;2022-10-31T09:30:41;14.75;;;9.57;;
37885;SDS011;23726;52.520;13.434;2022-10-31T09:33:11;11.68;;;9.15;;
37885;SDS011;23726;52.520;13.434;2022-10-31T09:35:37;11.67;;;9.57;;
37885;SDS011;23726;52.520;13.434;2022-10-31T09:38:04;14.18;;;9.77;;
37885;SDS011;23726;52.520;13.434;2022-10-31T09:51:03;13.07;;;9.33;;
37885;SDS011;23726;52.520;13.434;2022-10-31T09:53:34;12.32;;;8.32;;
37885;SDS011;23726;52.520;13.434;2022-10-31T09:56:15;13.70;;;9.00;;
37885;SDS011;23726;52.520;13.434;2022-10-31T09:58:44;12.90;;;9.45;;
37885;SDS011;23726;52.520;13.434;2022-10-31T10:03:56;12.45;;;9.27;;
37885;SDS011;23726;52.520;13.434;2022-10-31T10:06:29;13.73;;;9.98;;
37885;SDS011;23726;52.520;13.434;2022-10-31T10:08:59;13.55;;;9.65;;
37885;SDS011;23726;52.520;13.434;2022-10-31T10:11:35;12.13;;;9.55;;
37885;SDS011;23726;52.520;13.434;2022-10-31T10:14:43;12.18;;;8.98;;
37885;SDS011;23726;52.520;13.434;2022-10-31T10:25:44;13.35;;;9.68;;
37885;SDS011;23726;52.520;13.434;2022-10-31T10:28:20;12.88;;;9.50;;
37885;SDS011;23726;52.520;13.434;2022-10-31T10:30:59;12.25;;;9.10;;
37885;SDS011;23726;52.520;13.434;2022-10-31T10:33:31;16.00;;;9.65;;
37885;SDS011;23726;52.520;13.434;2022-10-31T10:36:05;13.13;;;9.38;;
37885;SDS011;23726;52.520;13.434;2022-10-31T10:41:18;16.40;;;9.48;;
37885;SDS011;23726;52.520;13.434;2022-10-31T10:43:51;15.30;;;9.23;;
37885;SDS011;23726;52.520;13.434;2022-10-31T10:46:18;11.32;;;9.50;;
37885;SDS011;23726;52.520;13.434;2022-10-31T10:52:19;13.73;;;9.80;;
37885;SDS011;23726;52.520;13.434;2022-10-31T10:57:49;16.52;;;10.18;;
37885;SDS011;23726;52.520;13.434;2022-10-31T11:00:34;13.70;;;9.15;;
37885;SDS011;23726;52.520;13.434;2022-10-31T11:03:07;14.50;;;9.75;;
37885;SDS011;23726;52.520;13.434;2022-10-31T11:05:37;13.77;;;10.15;;
37885;SDS011;23726;52.520;13.434;2022-10-31T11:08:07;13.73;;;9.40;;
37885;SDS011;23726;52.520;13.434;2022-10-31T11:10:33;11.63;;;9.07;;
37885;SDS011;23726;52.520;13.434;2022-10-31T11:13:21;12.57;;;9.68;;
37885;SDS011;23726;52.520;13.434;2022-10-31T11:15:59;11.02;;;9.07;;
37885;SDS011;23726;52.520;13.434;2022-10-31T11:18:32;13.10;;;9.97;;
37885;SDS011;23726;52.520;13.434;2022-10-31T11:21:00;12.20;;;9.50;;
37885;SDS011;23726;52.520;13.434;2022-10-31T11:23:31;13.10;;;9.40;;
37885;SDS011;23726;52.520;13.434;2022-10-31T11:26:04;12.70;;;9.65;;
37885;SDS011;23726;52.520;13.434;2022-10-31T11:28:32;12.57;;;9.20;;
37885;SDS011;23726;52.520;13.434;2022-10-31T11:31:00;13.15;;;10.02;;
37885;SDS011;23726;52.520;13.434;2022-10-31T11:36:15;12.27;;;9.80;;
37885;SDS011;23726;52.520;13.434;2022-10-31T11:38:46;13.32;;;9.18;;
37885;SDS011;23726;52.520;13.434;2022-10-31T11:41:16;13.77;;;9.05;;
37885;SDS011;23726;52.520;13.434;2022-10-31T11:43:49;13.95;;;10.13;;
37885;SDS011;23726;52.520;13.434;2022-10-31T11:46:42;16.88;;;9.90;;
37885;SDS011;23726;52.520;13.434;2022-10-31T11:49:30;12.80;;;10.20;;
37885;SDS011;23726;52.520;13.434;2022-10-31T11:52:06;28.00;;;10.88;;
37885;SDS011;23726;52.520;13.434;2022-10-31T11:54:42;16.85;;;11.18;;
37885;SDS011;23726;52.520;13.434;2022-10-31T11:59:52;151.85;;;72.25;;
37885;SDS011;23726;52.520;13.434;2022-10-31T12:02:22;161.68;;;79.55;;
37885;SDS011;23726;52.520;13.434;2022-10-31T12:04:50;158.60;;;75.90;;
37885;SDS011;23726;52.520;13.434;2022-10-31T12:07:37;166.77;;;80.97;;
37885;SDS011;23726;52.520;13.434;2022-10-31T12:10:09;134.32;;;67.13;;
37885;SDS011;23726;52.520;13.434;2022-10-31T12:15:17;103.07;;;53.60;;
37885;SDS011;23726;52.520;13.434;2022-10-31T12:17:56;90.15;;;43.53;;
37885;SDS011;23726;52.520;13.434;2022-10-31T12:23:09;66.75;;;35.53;;
37885;SDS011;23726;52.520;13.434;2022-10-31T12:25:53;64.47;;;34.70;;
37885;SDS011;23726;52.520;13.434;2022-10-31T12:39:39;246.32;;;70.32;;
37885;SDS011;23726;52.520;13.434;2022-10-31T12:42:18;244.73;;;71.80;;
37885;SDS011;23726;52.520;13.434;2022-10-31T12:47:42;283.00;;;79.53;;
37885;SDS011;23726;52.520;13.434;2022-10-31T12:50:38;360.27;;;90.50;;
37885;SDS011;23726;52.520;13.434;2022-10-31T12:53:24;284.98;;;79.53;;
37885;SDS011;23726;52.520;13.434;2022-10-31T12:56:16;242.57;;;67.82;;
37885;SDS011;23726;52.520;13.434;2022-10-31T12:59:13;190.63;;;55.47;;
37885;SDS011;23726;52.520;13.434;2022-10-31T13:01:54;249.13;;;67.85;;
37885;SDS011;23726;52.520;13.434;2022-10-31T13:04:51;212.25;;;62.65;;
37885;SDS011;23726;52.520;13.434;2022-10-31T13:07:29;186.30;;;51.80;;
37885;SDS011;23726;52.520;13.434;2022-10-31T13:12:37;181.52;;;52.80;;
37885;SDS011;23726;52.520;13.434;2022-10-31T13:15:05;160.52;;;48.15;;
37885;SDS011;23726;52.520;13.434;2022-10-31T13:17:45;158.60;;;46.03;;
37885;SDS011;23726;52.520;13.434;2022-10-31T13:20:34;129.95;;;41.22;;
37885;SDS011;23726;52.520;13.434;2022-10-31T13:23:12;121.07;;;41.65;;
37885;SDS011;23726;52.520;13.434;2022-10-31T13:26:00;131.55;;;44.17;;
37885;SDS011;23726;52.520;13.434;2022-10-31T13:28:40;113.95;;;40.08;;
37885;SDS011;23726;52.520;13.434;2022-10-31T13:31:11;124.38;;;40.42;;
37885;SDS011;23726;52.520;13.434;2022-10-31T13:33:42;99.00;;;35.20;;
37885;SDS011;23726;52.520;13.434;2022-10-31T13:38:51;84.22;;;33.50;;
37885;SDS011;23726;52.520;13.434;2022-10-31T13:41:30;81.82;;;31.05;;
37885;SDS011;23726;52.520;13.434;2022-10-31T13:44:23;87.63;;;31.67;;
37885;SDS011;23726;52.520;13.434;2022-10-31T13:46:51;88.72;;;31.25;;
37885;SDS011;23726;52.520;13.434;2022-10-31T13:54:34;80.78;;;27.55;;
37885;SDS011;23726;52.520;13.434;2022-10-31T13:57:01;71.88;;;27.35;;
37885;SDS011;23726;52.520;13.434;2022-10-31T13:59:31;57.65;;;25.67;;
37885;SDS011;23726;52.520;13.434;2022-10-31T14:02:01;60.85;;;25.27;;
37885;SDS011;23726;52.520;13.434;2022-10-31T14:04:38;54.88;;;23.30;;
37885;SDS011;23726;52.520;13.434;2022-10-31T14:07:12;56.55;;;24.50;;
37885;SDS011;23726;52.520;13.434;2022-10-31T14:12:46;61.20;;;24.08;;
37885;SDS011;23726;52.520;13.434;2022-10-31T14:15:26;55.53;;;23.17;;
37885;SDS011;23726;52.520;13.434;2022-10-31T14:18:00;48.28;;;21.48;;
37885;SDS011;23726;52.520;13.434;2022-10-31T14:20:36;51.90;;;22.73;;
37885;SDS011;23726;52.520;13.434;2022-10-31T14:25:53;41.15;;;21.00;;
37885;SDS011;23726;52.520;13.434;2022-10-31T14:28:32;47.03;;;21.50;;
37885;SDS011;23726;52.520;13.434;2022-10-31T14:30:59;44.35;;;21.08;;
37885;SDS011;23726;52.520;13.434;2022-10-31T14:33:26;38.92;;;20.70;;
37885;SDS011;23726;52.520;13.434;2022-10-31T14:35:56;39.63;;;20.80;;
37885;SDS011;23726;52.520;13.434;2022-10-31T14:38:56;45.03;;;21.15;;
37885;SDS011;23726;52.520;13.434;2022-10-31T14:41:54;40.22;;;20.77;;
37885;SDS011;23726;52.520;13.434;2022-10-31T14:44:52;34.92;;;19.35;;
37885;SDS011;23726;52.520;13.434;2022-10-31T14:47:49;36.35;;;19.25;;
37885;SDS011;23726;52.520;13.434;2022-10-31T14:50:45;38.40;;;19.55;;
37885;SDS011;23726;52.520;13.434;2022-10-31T14:53:25;38.67;;;19.90;;
37885;SDS011;23726;52.520;13.434;2022-10-31T14:55:55;36.42;;;19.02;;
37885;SDS011;23726;52.520;13.434;2022-10-31T14:58:24;38.95;;;18.80;;
37885;SDS011;23726;52.520;13.434;2022-10-31T15:00:58;35.50;;;18.98;;
37885;SDS011;23726;52.520;13.434;2022-10-31T15:03:29;33.78;;;19.60;;
37885;SDS011;23726;52.520;13.434;2022-10-31T15:06:11;34.15;;;18.23;;
37885;SDS011;23726;52.520;13.434;2022-10-31T15:08:39;29.83;;;18.35;;
37885;SDS011;23726;52.520;13.434;2022-10-31T15:11:10;33.08;;;18.55;;
37885;SDS011;23726;52.520;13.434;2022-10-31T15:13:50;29.13;;;17.20;;
37885;SDS011;23726;52.520;13.434;2022-10-31T15:16:28;33.50;;;18.50;;
37885;SDS011;23726;52.520;13.434;2022-10-31T15:19:00;28.95;;;17.90;;
37885;SDS011;23726;52.520;13.434;2022-10-31T15:21:29;30.27;;;17.97;;
37885;SDS011;23726;52.520;13.434;2022-10-31T15:23:55;29.30;;;18.63;;
37885;SDS011;23726;52.520;13.434;2022-10-31T15:26:24;32.38;;;18.50;;
37885;SDS011;23726;52.520;13.434;2022-10-31T15:29:16;27.30;;;17.35;;
37885;SDS011;23726;52.520;13.434;2022-10-31T15:31:50;28.10;;;18.02;;
37885;SDS011;23726;52.520;13.434;2022-10-31T15:34:17;25.13;;;17.70;;
37885;SDS011;23726;52.520;13.434;2022-10-31T15:36:48;28.30;;;17.88;;
37885;SDS011;23726;52.520;13.434;2022-10-31T15:39:15;28.45;;;18.50;;
37885;SDS011;23726;52.520;13.434;2022-10-31T15:41:48;29.80;;;18.48;;
37885;SDS011;23726;52.520;13.434;2022-10-31T15:44:26;24.88;;;17.67;;
37885;SDS011;23726;52.520;13.434;2022-10-31T15:49:31;29.60;;;18.27;;
37885;SDS011;23726;52.520;13.434;2022-10-31T15:52:14;28.05;;;17.80;;
37885;SDS011;23726;52.520;13.434;2022-10-31T15:54:47;28.55;;;18.92;;
37885;SDS011;23726;52.520;13.434;2022-10-31T15:57:17;27.42;;;17.65;;
37885;SDS011;23726;52.520;13.434;2022-10-31T15:59:44;30.52;;;18.25;;
37885;SDS011;23726;52.520;13.434;2022-10-31T16:02:12;25.92;;;17.48;;
37885;SDS011;23726;52.520;13.434;2022-10-31T16:04:49;25.17;;;17.67;;
37885;SDS011;23726;52.520;13.434;2022-10-31T16:07:21;24.92;;;17.63;;
37885;SDS011;23726;52.520;13.434;2022-10-31T16:09:51;29.95;;;17.85;;
37885;SDS011;23726;52.520;13.434;2022-10-31T16:12:22;25.55;;;17.38;;
37885;SDS011;23726;52.520;13.434;2022-10-31T16:14:52;24.35;;;17.33;;
37885;SDS011;23726;52.520;13.434;2022-10-31T16:17:21;26.38;;;18.00;;
37885;SDS011;23726;52.520;13.434;2022-10-31T16:19:59;27.02;;;17.13;;
37885;SDS011;23726;52.520;13.434;2022-10-31T16:22:27;30.50;;;18.65;;